createdAt,value
2019-05-02T00:01:01.440Z,96.50
2019-05-02T00:03:41.196Z,96.80
2019-05-02T00:06:17.148Z,97.20
2019-05-02T00:08:55.033Z,97.60
2019-05-02T00:11:32.858Z,97.80
2019-05-02T00:14:10.972Z,97.80
2019-05-02T00:16:49.426Z,98.10
2019-05-02T00:19:26.526Z,97.60
2019-05-02T00:22:04.356Z,97.50
2019-05-02T00:24:42.279Z,97.60
2019-05-02T00:27:20.084Z,98.00
2019-05-02T00:29:58.843Z,98.20
2019-05-02T00:32:35.592Z,98.50
2019-05-02T00:35:13.269Z,98.90
2019-05-02T00:37:51.139Z,99.40
2019-05-02T00:40:28.996Z,99.90
2019-05-02T00:43:06.810Z,99.90
2019-05-02T00:45:44.649Z,99.90
2019-05-02T00:48:36.060Z,99.90
2019-05-02T00:51:13.964Z,99.90
2019-05-02T00:53:52.306Z,99.90
2019-05-02T00:56:30.438Z,99.90
2019-05-02T00:59:08.872Z,99.90
2019-05-02T01:02:07.228Z,99.90
2019-05-02T01:04:45.292Z,99.90
2019-05-02T01:07:25.572Z,99.90
2019-05-02T01:10:01.111Z,99.90
2019-05-02T01:12:40.062Z,99.90
2019-05-02T01:15:17.394Z,99.90
2019-05-02T01:17:55.382Z,99.90
2019-05-02T01:20:33.419Z,99.90
2019-05-02T01:23:11.331Z,99.90
2019-05-02T01:25:52.754Z,99.90
2019-05-02T01:28:49.289Z,99.90
2019-05-02T01:31:45.511Z,99.90
2019-05-02T01:34:54.335Z,99.90
2019-05-02T01:37:51.063Z,99.90
2019-05-02T01:40:28.451Z,99.90
2019-05-02T01:43:25.630Z,99.90
2019-05-02T01:46:03.027Z,99.90
2019-05-02T01:48:45.629Z,99.90
2019-05-02T01:51:18.712Z,99.90
2019-05-02T01:53:56.514Z,99.90
2019-05-02T01:56:34.932Z,99.90
2019-05-02T01:59:12.201Z,99.90
2019-05-02T02:01:53.265Z,99.90
2019-05-02T02:04:27.849Z,99.90
2019-05-02T02:07:05.640Z,99.90
2019-05-02T02:09:44.486Z,99.90
2019-05-02T02:12:21.305Z,99.90
2019-05-02T02:14:59.105Z,99.90
2019-05-02T02:17:36.947Z,99.90
2019-05-02T02:20:15.632Z,99.90
2019-05-02T02:23:05.138Z,99.90
2019-05-02T02:25:49.271Z,99.90
2019-05-02T02:28:31.996Z,99.90
2019-05-02T02:31:07.798Z,99.90
2019-05-02T02:33:48.051Z,99.90
2019-05-02T02:36:31.262Z,99.90
2019-05-02T02:38:58.724Z,99.90
2019-05-02T02:41:36.437Z,99.90
2019-05-02T02:44:46.133Z,99.90
2019-05-02T02:47:23.797Z,99.90
2019-05-02T02:50:02.990Z,99.90
2019-05-02T02:52:44.815Z,99.90
2019-05-02T02:55:21.961Z,99.90
2019-05-02T02:57:58.413Z,99.90
2019-05-02T03:00:32.726Z,99.90
2019-05-02T03:03:10.640Z,99.90
2019-05-02T03:05:48.459Z,99.90
2019-05-02T03:08:26.322Z,99.90
2019-05-02T03:11:04.097Z,99.90
2019-05-02T03:14:07.438Z,99.90
2019-05-02T03:16:46.873Z,99.90
2019-05-02T03:19:21.416Z,99.90
2019-05-02T03:22:01.143Z,99.90
2019-05-02T03:24:36.505Z,99.90
2019-05-02T03:27:11.835Z,99.90
2019-05-02T03:29:49.609Z,99.90
2019-05-02T03:32:34.283Z,99.90
2019-05-02T03:35:05.212Z,99.90
2019-05-02T03:37:44.703Z,99.90
2019-05-02T03:40:20.670Z,99.90
2019-05-02T03:42:58.293Z,99.90
2019-05-02T03:45:39.956Z,99.90
2019-05-02T03:48:18.366Z,99.90
2019-05-02T03:50:51.535Z,99.90
2019-05-02T03:53:29.329Z,99.90
2019-05-02T03:56:11.522Z,99.90
2019-05-02T03:58:48.338Z,99.90
2019-05-02T04:01:22.861Z,99.90
2019-05-02T04:04:00.702Z,99.90
2019-05-02T04:06:38.488Z,99.90
2019-05-02T04:09:38.731Z,99.90
2019-05-02T04:12:18.896Z,99.90
2019-05-02T04:15:13.760Z,99.90
2019-05-02T04:17:51.588Z,99.90
2019-05-02T04:20:29.376Z,99.90
2019-05-02T04:23:07.576Z,99.90
2019-05-02T04:25:45.331Z,99.90
2019-05-02T04:28:24.499Z,99.90
2019-05-02T04:31:02.338Z,99.90
2019-05-02T04:33:39.965Z,99.90
2019-05-02T04:36:17.970Z,99.90
2019-05-02T04:38:55.100Z,99.90
2019-05-02T04:41:34.367Z,99.90
2019-05-02T04:44:10.162Z,99.90
2019-05-02T04:46:48.894Z,99.90
2019-05-02T04:49:32.673Z,99.90
2019-05-02T04:52:10.578Z,99.90
2019-05-02T04:54:40.426Z,99.90
2019-05-02T04:57:18.708Z,99.90
2019-05-02T05:00:02.542Z,99.90
2019-05-02T05:02:36.753Z,99.90
2019-05-02T05:05:10.717Z,99.90
2019-05-02T05:07:49.484Z,99.90
2019-05-02T05:10:27.734Z,99.90
2019-05-02T05:13:03.356Z,99.90
2019-05-02T05:15:48.528Z,99.90
2019-05-02T05:18:18.459Z,99.90
2019-05-02T05:20:57.757Z,99.90
2019-05-02T05:23:41.950Z,99.90
2019-05-02T05:26:19.465Z,99.90
2019-05-02T05:28:58.313Z,99.90
2019-05-02T05:31:34.543Z,99.90
2019-05-02T05:34:12.121Z,99.90
2019-05-02T05:36:49.651Z,99.90
2019-05-02T05:39:28.179Z,99.90
2019-05-02T05:42:04.770Z,99.90
2019-05-02T05:44:42.330Z,99.90
2019-05-02T05:47:21.348Z,99.90
2019-05-02T05:50:01.028Z,99.90
2019-05-02T05:52:38.779Z,99.90
2019-05-02T05:55:17.141Z,99.90
2019-05-02T05:57:59.525Z,99.90
2019-05-02T06:00:27.967Z,99.90
2019-05-02T06:03:12.901Z,99.90
2019-05-02T06:05:42.726Z,99.90
2019-05-02T06:08:20.244Z,99.90
2019-05-02T06:10:57.837Z,99.90
2019-05-02T06:13:38.029Z,99.90
2019-05-02T06:16:15.083Z,99.90
2019-05-02T06:18:50.471Z,99.40
2019-05-02T06:21:27.990Z,97.10
2019-05-02T06:24:05.569Z,96.20
2019-05-02T06:26:44.703Z,93.90
2019-05-02T06:29:21.004Z,92.90
2019-05-02T06:32:01.547Z,91.70
2019-05-02T06:34:46.383Z,91.70
2019-05-02T06:37:16.647Z,91.10
2019-05-02T06:39:54.212Z,90.20
2019-05-02T06:42:32.738Z,88.80
2019-05-02T06:45:10.112Z,87.00
2019-05-02T06:47:47.754Z,87.40
2019-05-02T06:50:25.318Z,86.70
2019-05-02T06:53:04.404Z,86.40
2019-05-02T06:55:40.374Z,84.80
2019-05-02T06:58:17.879Z,83.20
2019-05-02T07:00:58.253Z,81.30
2019-05-02T07:03:33.026Z,82.00
2019-05-02T07:06:10.569Z,81.60
2019-05-02T07:08:48.070Z,80.40
2019-05-02T07:11:25.561Z,79.80
2019-05-02T07:14:13.048Z,79.10
2019-05-02T07:16:56.482Z,79.20
2019-05-02T07:19:35.201Z,78.90
2019-05-02T07:22:12.823Z,78.10
2019-05-02T07:24:50.363Z,79.30
2019-05-02T07:27:28.330Z,78.90
2019-05-02T07:30:08.683Z,76.80
2019-05-02T07:32:46.262Z,78.10
2019-05-02T07:35:24.449Z,78.70
2019-05-02T07:38:01.448Z,79.80
2019-05-02T07:40:39.028Z,80.40
2019-05-02T07:43:21.172Z,83.70
2019-05-02T07:45:54.112Z,82.50
2019-05-02T07:48:31.735Z,81.80
2019-05-02T07:51:09.196Z,82.40
2019-05-02T07:53:48.531Z,84.20
2019-05-02T07:56:24.316Z,84.80
2019-05-02T07:59:01.919Z,83.70
2019-05-02T08:01:39.585Z,83.30
2019-05-02T08:04:17.131Z,81.10
2019-05-02T08:06:54.699Z,80.60
2019-05-02T08:09:32.352Z,79.40
2019-05-02T08:12:10.074Z,76.90
2019-05-02T08:14:47.601Z,76.20
2019-05-02T08:17:25.147Z,75.60
2019-05-02T08:20:05.081Z,74.80
2019-05-02T08:22:44.168Z,72.80
2019-05-02T08:25:17.784Z,72.10
2019-05-02T08:28:04.693Z,71.50
2019-05-02T08:30:41.931Z,71.00
2019-05-02T08:33:19.349Z,72.40
2019-05-02T08:35:56.932Z,73.40
2019-05-02T08:38:34.624Z,74.10
2019-05-02T08:41:12.139Z,74.60
2019-05-02T08:43:49.839Z,74.40
2019-05-02T08:46:27.386Z,74.40
2019-05-02T08:49:04.950Z,73.40
2019-05-02T08:51:42.463Z,73.80
2019-05-02T08:54:20.031Z,73.10
2019-05-02T08:56:59.202Z,72.80
2019-05-02T08:59:35.054Z,71.40
2019-05-02T09:02:12.653Z,70.40
2019-05-02T09:04:58.409Z,70.40
2019-05-02T09:07:31.538Z,70.80
2019-05-02T09:10:07.488Z,70.60
2019-05-02T09:12:45.431Z,70.30
2019-05-02T09:15:22.306Z,71.30
2019-05-02T09:17:58.197Z,71.30
2019-05-02T09:20:35.754Z,68.00
2019-05-02T09:23:13.299Z,68.10
2019-05-02T09:25:51.928Z,69.20
2019-05-02T09:28:28.556Z,67.70
2019-05-02T09:31:06.811Z,67.80
2019-05-02T09:33:46.776Z,64.70
2019-05-02T09:36:22.748Z,64.40
2019-05-02T09:38:58.649Z,66.20
2019-05-02T09:41:36.463Z,67.50
2019-05-02T09:44:18.616Z,65.10
2019-05-02T09:46:53.060Z,65.40
2019-05-02T09:49:28.974Z,65.60
2019-05-02T09:52:06.763Z,67.80
2019-05-02T09:54:46.103Z,64.60
2019-05-02T09:57:22.573Z,64.00
2019-05-02T09:59:59.586Z,64.60
2019-05-02T10:02:37.150Z,63.40
2019-05-02T10:05:14.738Z,63.80
2019-05-02T10:07:52.690Z,63.90
2019-05-02T10:10:29.825Z,62.60
2019-05-02T10:13:07.971Z,66.10
2019-05-02T10:15:45.602Z,65.50
2019-05-02T10:18:28.304Z,62.70
2019-05-02T10:21:02.811Z,60.90
2019-05-02T10:23:38.279Z,62.90
2019-05-02T10:26:20.117Z,62.20
2019-05-02T10:28:53.605Z,62.70
2019-05-02T10:31:33.500Z,61.80
2019-05-02T10:34:13.035Z,61.70
2019-05-02T10:36:46.177Z,60.40
2019-05-02T10:39:23.817Z,60.40
2019-05-02T10:42:02.095Z,59.40
2019-05-02T10:44:38.852Z,59.00
2019-05-02T10:47:16.361Z,58.70
2019-05-02T10:50:02.134Z,58.70
2019-05-02T10:52:37.537Z,58.00
2019-05-02T10:55:15.067Z,58.70
2019-05-02T10:57:52.856Z,55.80
2019-05-02T11:00:33.691Z,55.30
2019-05-02T11:03:22.565Z,56.50
2019-05-02T11:06:05.411Z,54.50
2019-05-02T11:08:42.219Z,54.30
2019-05-02T11:11:16.856Z,53.60
2019-05-02T11:14:13.002Z,51.20
2019-05-02T11:16:52.633Z,51.60
2019-05-02T11:19:45.987Z,52.80
2019-05-02T11:22:23.606Z,54.00
2019-05-02T11:25:01.720Z,53.70
2019-05-02T11:27:38.675Z,47.50
2019-05-02T11:30:16.829Z,44.60
2019-05-02T11:32:53.687Z,47.30
2019-05-02T11:35:31.815Z,46.50
2019-05-02T11:38:09.133Z,47.70
2019-05-02T11:40:46.371Z,50.00
2019-05-02T11:43:23.915Z,49.40
2019-05-02T11:46:06.810Z,50.10
2019-05-02T11:48:38.991Z,50.00
2019-05-02T11:51:16.587Z,47.30
2019-05-02T11:53:54.065Z,44.60
2019-05-02T11:56:32.938Z,41.70
2019-05-02T11:59:09.107Z,40.20
2019-05-02T12:01:59.368Z,36.30
2019-05-02T12:04:28.639Z,33.00
2019-05-02T12:07:06.184Z,31.40
2019-05-02T12:09:51.037Z,30.40
2019-05-02T12:12:22.763Z,31.10
2019-05-02T12:14:59.295Z,31.70
2019-05-02T12:17:36.959Z,30.50
2019-05-02T12:20:14.477Z,30.10
2019-05-02T12:22:52.772Z,34.40
2019-05-02T12:25:29.551Z,36.90
2019-05-02T12:28:07.252Z,34.40
2019-05-02T12:30:44.770Z,33.40
2019-05-02T12:33:22.428Z,36.10
2019-05-02T12:35:59.983Z,38.80
2019-05-02T12:38:37.599Z,40.90
2019-05-02T12:41:22.261Z,42.70
2019-05-02T12:43:52.683Z,44.90
2019-05-02T12:46:31.720Z,44.50
2019-05-02T12:49:07.837Z,44.50
2019-05-02T12:51:45.395Z,46.80
2019-05-02T12:54:22.949Z,48.00
2019-05-02T12:57:02.046Z,48.30
2019-05-02T12:59:38.050Z,46.90
2019-05-02T13:02:21.757Z,42.50
2019-05-02T13:04:59.287Z,41.10
2019-05-02T13:07:36.940Z,42.50
2019-05-02T13:10:15.157Z,42.70
2019-05-02T13:12:53.228Z,43.40
2019-05-02T13:15:30.509Z,38.70
2019-05-02T13:18:08.014Z,38.20
2019-05-02T13:20:45.580Z,36.10
2019-05-02T13:23:42.551Z,35.70
2019-05-02T13:26:24.306Z,33.10
2019-05-02T13:28:56.854Z,32.30
2019-05-02T13:31:53.019Z,30.70
2019-05-02T13:34:35.084Z,29.40
2019-05-02T13:37:14.910Z,25.90
2019-05-02T13:40:12.078Z,25.40
2019-05-02T13:42:49.066Z,27.20
2019-05-02T13:45:41.958Z,30.60
2019-05-02T13:48:19.129Z,34.90
2019-05-02T13:50:56.632Z,38.00
2019-05-02T13:53:34.157Z,35.60
2019-05-02T13:56:46.905Z,34.10
2019-05-02T13:59:24.425Z,34.20
2019-05-02T14:02:02.720Z,31.40
2019-05-02T14:04:41.480Z,30.00
2019-05-02T14:07:17.562Z,28.70
2019-05-02T14:09:58.698Z,26.30
2019-05-02T14:12:53.716Z,24.90
2019-05-02T14:15:35.159Z,23.10
2019-05-02T14:18:12.673Z,22.60
2019-05-02T14:20:50.216Z,25.50
2019-05-02T14:23:28.335Z,26.00
2019-05-02T14:26:05.872Z,25.10
2019-05-02T14:28:43.493Z,24.70
2019-05-02T14:31:21.699Z,24.40
2019-05-02T14:34:17.188Z,24.10
2019-05-02T14:36:59.180Z,23.30
2019-05-02T14:39:32.608Z,22.60
2019-05-02T14:42:15.303Z,22.70
2019-05-02T14:45:04.332Z,23.10
2019-05-02T14:47:24.766Z,23.60
2019-05-02T14:50:05.084Z,23.80
2019-05-02T14:52:42.184Z,26.20
2019-05-02T14:55:22.256Z,26.00
2019-05-02T14:57:57.113Z,26.60
2019-05-02T15:00:39.441Z,27.70
2019-05-02T15:03:12.806Z,28.30
2019-05-02T15:05:48.025Z,30.20
2019-05-02T15:08:25.514Z,31.90
2019-05-02T15:11:03.471Z,32.10
2019-05-02T15:13:43.136Z,31.10
2019-05-02T15:16:19.492Z,29.00
2019-05-02T15:18:57.126Z,27.90
2019-05-02T15:21:47.066Z,26.50
2019-05-02T15:24:23.056Z,25.80
2019-05-02T15:27:03.926Z,22.70
2019-05-02T15:29:37.386Z,21.00
2019-05-02T15:32:37.302Z,21.50
2019-05-02T15:35:35.845Z,21.10
2019-05-02T15:38:16.675Z,22.10
2019-05-02T15:40:51.351Z,23.20
2019-05-02T15:43:25.636Z,23.00
2019-05-02T15:46:03.164Z,22.60
2019-05-02T15:48:43.935Z,22.40
2019-05-02T15:51:23.068Z,22.90
2019-05-02T15:54:08.117Z,24.40
2019-05-02T15:57:00.469Z,25.10
2019-05-02T15:59:43.184Z,25.70
2019-05-02T16:02:17.571Z,24.90
2019-05-02T16:04:57.163Z,25.10
2019-05-02T16:07:32.512Z,25.80
2019-05-02T16:10:08.640Z,26.70
2019-05-02T16:12:46.158Z,26.70
2019-05-02T16:15:26.313Z,26.90
2019-05-02T16:18:04.222Z,26.50
2019-05-02T16:21:02.176Z,27.20
2019-05-02T16:23:32.905Z,28.00
2019-05-02T16:26:08.714Z,29.20
2019-05-02T16:28:45.476Z,28.80
2019-05-02T16:31:22.135Z,29.60
2019-05-02T16:33:58.514Z,30.00
2019-05-02T16:36:37.598Z,31.60
2019-05-02T16:39:15.415Z,33.30
2019-05-02T16:41:52.935Z,33.10
2019-05-02T16:44:28.935Z,33.10
2019-05-02T16:47:06.527Z,32.50
2019-05-02T16:49:47.998Z,31.90
2019-05-02T16:52:22.281Z,33.20
2019-05-02T16:54:59.442Z,33.60
2019-05-02T16:57:37.031Z,34.20
2019-05-02T17:00:16.034Z,32.90
2019-05-02T17:02:53.866Z,33.20
2019-05-02T17:05:32.486Z,33.70
2019-05-02T17:08:20.044Z,33.50
2019-05-02T17:11:01.983Z,34.10
2019-05-02T17:13:39.148Z,34.40
2019-05-02T17:16:22.143Z,35.20
2019-05-02T17:18:57.988Z,36.50
2019-05-02T17:21:52.376Z,37.60
2019-05-02T17:24:17.370Z,38.90
2019-05-02T17:26:51.877Z,40.10
2019-05-02T17:29:29.064Z,41.00
2019-05-02T17:32:08.884Z,42.80
2019-05-02T17:34:44.236Z,43.20
2019-05-02T17:37:21.800Z,44.40
2019-05-02T17:40:01.652Z,44.90
2019-05-02T17:42:37.876Z,44.70
2019-05-02T17:45:15.432Z,44.60
2019-05-02T17:47:52.984Z,44.80
2019-05-02T17:51:05.709Z,45.60
2019-05-02T17:53:49.562Z,46.00
2019-05-02T17:56:23.191Z,47.40
2019-05-02T17:58:59.359Z,48.70
2019-05-02T18:01:38.948Z,50.00
2019-05-02T18:04:16.962Z,51.00
2019-05-02T18:06:55.228Z,52.00
2019-05-02T18:09:35.019Z,52.50
2019-05-02T18:12:14.501Z,53.00
2019-05-02T18:14:53.145Z,53.80
2019-05-02T18:17:27.516Z,54.30
2019-05-02T18:20:05.970Z,55.10
2019-05-02T18:22:45.375Z,56.00
2019-05-02T18:25:23.614Z,56.50
2019-05-02T18:27:55.495Z,57.30
2019-05-02T18:30:33.073Z,58.10
2019-05-02T18:33:12.041Z,58.90
2019-05-02T18:35:48.209Z,59.80
2019-05-02T18:38:25.750Z,60.50
2019-05-02T18:41:05.979Z,61.60
2019-05-02T18:43:44.808Z,62.20
2019-05-02T18:46:19.990Z,62.50
2019-05-02T18:48:56.201Z,63.20
2019-05-02T18:51:33.815Z,63.60
2019-05-02T18:54:12.160Z,64.10
2019-05-02T18:56:51.275Z,64.40
2019-05-02T18:59:27.268Z,65.00
2019-05-02T19:02:03.932Z,65.50
2019-05-02T19:04:42.370Z,66.10
2019-05-02T19:07:30.886Z,66.50
2019-05-02T19:09:58.962Z,66.80
2019-05-02T19:12:33.996Z,67.40
2019-05-02T19:15:11.745Z,67.90
2019-05-02T19:17:49.328Z,68.20
2019-05-02T19:21:12.325Z,68.60
2019-05-02T19:23:47.651Z,68.60
2019-05-02T19:26:25.146Z,68.80
2019-05-02T19:29:21.597Z,68.80
2019-05-02T19:31:57.688Z,68.90
2019-05-02T19:34:35.249Z,69.00
2019-05-02T19:37:12.808Z,68.80
2019-05-02T19:39:52.370Z,68.80
2019-05-02T19:42:27.870Z,68.70
2019-05-02T19:45:11.658Z,68.60
2019-05-02T19:47:43.073Z,68.70
2019-05-02T19:50:43.453Z,69.30
2019-05-02T19:53:18.276Z,70.30
2019-05-02T19:55:57.274Z,70.90
2019-05-02T19:58:32.121Z,72.00
2019-05-02T20:01:09.696Z,73.80
2019-05-02T20:03:47.432Z,75.80
2019-05-02T20:06:25.327Z,77.30
2019-05-02T20:09:04.761Z,78.30
2019-05-02T20:11:42.534Z,79.80
2019-05-02T20:14:18.634Z,80.60
2019-05-02T20:16:56.354Z,82.00
2019-05-02T20:19:34.956Z,85.20
2019-05-02T20:22:15.031Z,84.90
2019-05-02T20:25:00.380Z,87.40
2019-05-02T20:27:35.020Z,90.90
2019-05-02T20:30:12.738Z,90.90
2019-05-02T20:32:51.775Z,91.60
2019-05-02T20:35:28.278Z,91.80
2019-05-02T20:38:05.990Z,92.00
2019-05-02T20:40:43.687Z,92.80
2019-05-02T20:43:22.646Z,92.80
2019-05-02T20:45:59.896Z,92.80
2019-05-02T20:48:37.675Z,93.20
2019-05-02T20:51:15.367Z,93.20
2019-05-02T20:53:53.116Z,93.20
2019-05-02T20:56:32.146Z,93.10
2019-05-02T20:59:08.707Z,93.50
2019-05-02T21:01:46.380Z,93.50
2019-05-02T21:04:24.117Z,93.50
2019-05-02T21:07:17.390Z,93.70
2019-05-02T21:10:06.324Z,93.60
2019-05-02T21:12:44.127Z,93.90
2019-05-02T21:15:21.843Z,94.30
2019-05-02T21:17:59.547Z,94.30
2019-05-02T21:20:37.229Z,94.30
2019-05-02T21:23:14.938Z,94.40
2019-05-02T21:25:52.632Z,94.20
2019-05-02T21:28:32.127Z,94.20
2019-05-02T21:31:08.285Z,94.10
2019-05-02T21:33:46.072Z,94.10
2019-05-02T21:36:23.774Z,94.00
2019-05-02T21:39:02.778Z,94.20
2019-05-02T21:41:39.243Z,94.30
2019-05-02T21:44:17.031Z,94.60
2019-05-02T21:46:54.747Z,94.60
2019-05-02T21:49:52.482Z,94.90
2019-05-02T21:52:39.954Z,95.00
2019-05-02T21:55:26.699Z,95.60
2019-05-02T21:58:04.398Z,95.40
2019-05-02T22:01:04.819Z,95.40
2019-05-02T22:03:42.692Z,95.00
2019-05-02T22:06:22.633Z,94.80
2019-05-02T22:08:58.312Z,94.30
2019-05-02T22:11:35.957Z,93.80
2019-05-02T22:14:13.753Z,93.40
2019-05-02T22:16:52.926Z,93.10
2019-05-02T22:19:29.131Z,92.10
2019-05-02T22:22:06.806Z,91.10
2019-05-02T22:24:44.584Z,90.60
2019-05-02T22:27:22.207Z,90.20
2019-05-02T22:30:01.931Z,88.30
2019-05-02T22:32:37.626Z,87.50
2019-05-02T22:35:15.301Z,87.80
2019-05-02T22:37:53.012Z,87.10
2019-05-02T22:40:32.364Z,87.40
2019-05-02T22:43:08.540Z,88.20
2019-05-02T22:45:46.295Z,88.50
2019-05-02T22:48:23.992Z,87.70
2019-05-02T22:51:01.766Z,87.40
2019-05-02T22:53:41.577Z,87.20
2019-05-02T22:56:17.423Z,87.10
2019-05-02T22:58:55.145Z,87.50
2019-05-02T23:01:32.835Z,87.20
2019-05-02T23:04:12.517Z,87.10
2019-05-02T23:06:48.386Z,87.20
2019-05-02T23:09:26.248Z,87.60
2019-05-02T23:12:04.028Z,88.00
2019-05-02T23:14:41.938Z,87.90
2019-05-02T23:17:19.504Z,88.40
2019-05-02T23:19:57.285Z,88.60
2019-05-02T23:22:35.084Z,89.20
2019-05-02T23:25:32.222Z,89.40
2019-05-02T23:28:13.428Z,89.60
2019-05-02T23:30:51.917Z,89.60
2019-05-02T23:33:47.815Z,89.60
2019-05-02T23:36:25.486Z,89.90
2019-05-02T23:39:03.276Z,89.80
2019-05-02T23:41:42.094Z,90.00
2019-05-02T23:44:19.160Z,89.80
2019-05-02T23:46:57.038Z,88.80
2019-05-02T23:49:34.804Z,89.60
2019-05-02T23:52:12.558Z,90.10
2019-05-02T23:54:52.449Z,90.50
2019-05-02T23:57:27.993Z,90.80
